Terminal Aerodrome Forecast
Issued by NWS Binghamton, NY

Home | Current Version | Previous Version | Text Only | Print | Product List | Glossary On
Versions: 1 2 3 4 5 6 7 8 9 10 11 12 13 14 15
000
FTUS41 KBGM 061723
TAFSYR
TAF
KSYR 061723Z 0618/0718 07007KT P6SM SCT060 OVC200
     FM062000 10006KT P6SM BKN060 OVC200
     FM070200 17010KT P6SM SCT025 OVC040
     FM070800 18007KT 5SM HZ BR OVC025
     FM071500 21007KT P6SM BKN050=

USA.gov is the U.S. government's official web portal to all federal, state and local government web resources and services.